Brandywine — WDB9646 — position and weather

sailwx.info

Track history (hours):
 
Tides and Currents Weather Stations Pressure Air Temp Water Temp Dewpoint Dewpoint Depression Visibility Wind Speed Wind Dir Waves Ship Positions

Brandywine

Owner: OVERALLS LEASING LLC, LEWES, DE. More information available from US FCC via Universal Licensing System and Coast Guard Vessel Documentation Center.

Last reported at 2017-Sep-21 15:20 UTC. Time now 2017-Sep-21 15:59 UTC.
Position N 38°56' W 075°10'.

Length 16 m.

Type: . MMSI: 366980160.

Date/timePositionNaut miles runAvg speedWind from/ knotsBaromVisibWave heightAir tempDewpointWater temp
2017-Sep-21 15:20N 38°56' W 075°10'0 0.3
2017-Sep-21 15:00N 38°56' W 075°10'0 0.9
2017-Sep-21 14:29N 38°56' W 075°09'910.6
2017-Sep-21 13:38N 38°47' W 075°07'3 4.9
2017-Sep-21 13:05N 38°48' W 075°04'219.9
2017-Sep-21 13:00N 38°48' W 075°06'2 3.3
2017-Sep-21 12:30N 38°47' W 075°07'0 0.0
2017-Sep-21 12:00N 38°47' W 075°07'0 0.0
2017-Sep-21 11:30N 38°47' W 075°07'0 0.0
2017-Sep-21 11:00N 38°47' W 075°07'0 0.0
2017-Sep-21 10:30N 38°47' W 075°07'0 0.0
2017-Sep-21 10:00N 38°47' W 075°07'0 0.0
2017-Sep-21 09:30N 38°47' W 075°07'0 0.0
2017-Sep-21 09:00N 38°47' W 075°07'0 0.0
2017-Sep-21 08:30N 38°47' W 075°07'0 0.0
2017-Sep-21 07:57N 38°47' W 075°07'0 0.0
2017-Sep-21 07:12N 38°47' W 075°07'512.7
2017-Sep-21 06:50N 38°47' W 075°01'5 1.8
2017-Sep-21 04:11N 38°47' W 075°07'0 0.0
2017-Sep-21 03:54N 38°47' W 075°07'0 0.0
2017-Sep-21 03:30N 38°47' W 075°07'0 0.0
2017-Sep-21 02:50N 38°47' W 075°07'2 0.1
2017-Sep-19 10:09N 38°48' W 075°10'0 0.0
2017-Sep-19 06:10N 38°48' W 075°10'0 0.0
2017-Sep-19 05:58N 38°48' W 075°10'0 0.0
2017-Sep-19 03:40N 38°48' W 075°10'2 0.1
2017-Sep-18 11:24N 38°47' W 075°07'3 8.3
2017-Sep-18 11:01N 38°50' W 075°06'3 6.6
2017-Sep-18 10:30N 38°47' W 075°07'3 0.6
2017-Sep-18 05:29N 38°49' W 075°04'3 1.9
2017-Sep-18 03:49N 38°47' W 075°07'0 0.0
2017-Sep-18 02:41N 38°47' W 075°07'0 0.0
2017-Sep-18 02:24N 38°47' W 075°07'2 3.1
2017-Sep-18 01:46N 38°49' W 075°06'2 6.4
2017-Sep-18 01:28N 38°47' W 075°07'0 0.0
2017-Sep-18 00:56N 38°47' W 075°07'0 0.0
2017-Sep-18 00:03N 38°47' W 075°07'0 0.0
2017-Sep-17 14:17N 38°47' W 075°07'0 0.0
2017-Sep-17 13:57N 38°47' W 075°07'0 0.0
2017-Sep-17 13:08N 38°47' W 075°07'0 0.0
2017-Sep-17 13:00N 38°47' W 075°07'0 0.0
2017-Sep-17 12:25N 38°47' W 075°07'2 5.1
2017-Sep-17 11:58N 38°48' W 075°05'2 4.8
2017-Sep-17 11:30N 38°47' W 075°07'0 0.2
2017-Sep-17 10:58N 38°47' W 075°07'0 0.0
2017-Sep-17 10:28N 38°47' W 075°07'0 0.0
2017-Sep-17 10:00N 38°47' W 075°07'0 0.0
2017-Sep-17 09:29N 38°47' W 075°07'4 6.8
2017-Sep-17 08:54N 38°47' W 075°02'410.1
2017-Sep-17 08:30N 38°47' W 075°07'0 0.0
2017-Sep-17 07:54N 38°47' W 075°07'0 0.0
2017-Sep-17 07:30N 38°47' W 075°07'0 0.0
2017-Sep-17 06:54N 38°47' W 075°07'0 0.0
2017-Sep-17 06:28N 38°47' W 075°07'0 0.0
2017-Sep-17 06:00N 38°47' W 075°07'0 0.0
2017-Sep-17 05:30N 38°47' W 075°07'0 0.0
2017-Sep-17 05:00N 38°47' W 075°07'0 0.0
2017-Sep-17 04:30N 38°47' W 075°07'4 8.2
2017-Sep-17 04:00N 38°47' W 075°02'4 8.1
2017-Sep-17 03:30N 38°47' W 075°07'0 0.0
2017-Sep-17 02:57N 38°47' W 075°07'0 0.0
2017-Sep-17 02:30N 38°47' W 075°07'0 0.0
2017-Sep-17 02:00N 38°47' W 075°07'0 0.0
2017-Sep-17 01:30N 38°47' W 075°07'0 0.0
2017-Sep-17 01:00N 38°47' W 075°07'0 0.0
2017-Sep-17 00:30N 38°47' W 075°07'4 8.7
2017-Sep-17 00:01N 38°50' W 075°04'4 8.7
2017-Sep-16 23:31N 38°47' W 075°07'0 0.0
2017-Sep-16 23:00N 38°47' W 075°07'0 0.0
2017-Sep-16 22:30N 38°47' W 075°07'0 0.0
2017-Sep-16 21:59N 38°47' W 075°07'0 0.0
2017-Sep-16 21:30N 38°47' W 075°07'2 4.3
2017-Sep-16 20:59N 38°49' W 075°07'2 4.5
2017-Sep-16 20:30N 38°47' W 075°07'0 0.0
2017-Sep-16 20:00N 38°47' W 075°07'0 0.0
2017-Sep-16 19:31N 38°47' W 075°07'0 0.0
2017-Sep-16 18:47N 38°47' W 075°07'411.1
2017-Sep-16 18:24N 38°47' W 075°02'4 4.3
2017-Sep-16 17:26N 38°47' W 075°07'0 0.0
2017-Sep-16 16:59N 38°47' W 075°07'0 0.0
2017-Sep-16 16:00N 38°47' W 075°07'0 0.0
2017-Sep-16 15:30N 38°47' W 075°07'0 0.0
2017-Sep-16 14:58N 38°47' W 075°07'0 0.0
2017-Sep-16 14:26N 38°47' W 075°07'0 0.0
2017-Sep-16 14:00N 38°47' W 075°07'0 0.0
2017-Sep-16 13:30N 38°47' W 075°07'0 0.0
2017-Sep-16 13:00N 38°47' W 075°07'0 0.0
2017-Sep-16 12:30N 38°47' W 075°07'0 0.0
2017-Sep-16 12:00N 38°47' W 075°07'0 0.0
2017-Sep-16 11:30N 38°47' W 075°07'0 0.0
2017-Sep-16 11:00N 38°47' W 075°07'0 0.0
2017-Sep-16 10:30N 38°47' W 075°07'0 0.0
2017-Sep-16 10:00N 38°47' W 075°07'0 0.0
2017-Sep-16 09:30N 38°47' W 075°07'2 3.7
2017-Sep-16 09:00N 38°49' W 075°06'0 0.1
2017-Sep-16 08:30N 38°49' W 075°06'2 3.7
2017-Sep-16 08:00N 38°47' W 075°07'0 0.0
2017-Sep-16 07:30N 38°47' W 075°07'0 0.0
2017-Sep-16 07:00N 38°47' W 075°07'0 0.0
2017-Sep-16 06:30N 38°47' W 075°07'0 0.0
2017-Sep-16 06:00N 38°47' W 075°07'4 7.3
2017-Sep-16 05:31N 38°47' W 075°03'4 7.1
2017-Sep-16 05:00N 38°47' W 075°07'0 0.0
2017-Sep-16 04:30N 38°47' W 075°07'0 0.0
2017-Sep-16 04:00N 38°47' W 075°07'0 0.0
2017-Sep-16 03:16N 38°47' W 075°07'0 0.0
2017-Sep-16 02:59N 38°47' W 075°07'0 0.0
2017-Sep-16 00:42N 38°47' W 075°07'0 0.0
2017-Sep-16 00:29N 38°47' W 075°07'0 0.0
2017-Sep-15 23:59N 38°47' W 075°07'0 0.0
2017-Sep-15 16:04N 38°47' W 075°07'0 0.0
2017-Sep-15 15:54N 38°47' W 075°07'0 0.0
2017-Sep-15 15:29N 38°47' W 075°07'0 0.0
2017-Sep-15 15:00N 38°47' W 075°07'0 0.0
2017-Sep-15 14:30N 38°47' W 075°07'4 6.6
2017-Sep-15 13:53N 38°50' W 075°04'4 4.1
2017-Sep-15 12:54N 38°47' W 075°07'0 0.0
2017-Sep-15 12:30N 38°47' W 075°07'0 0.0
2017-Sep-15 12:00N 38°47' W 075°07'0 0.0
2017-Sep-15 11:14N 38°47' W 075°07'0 0.0
2017-Sep-15 11:00N 38°47' W 075°07'0 0.0
2017-Sep-15 10:30N 38°47' W 075°07'3 5.0
2017-Sep-15 10:00N 38°48' W 075°04'3 4.3
2017-Sep-15 09:25N 38°47' W 075°07'0 0.0
2017-Sep-15 08:56N 38°47' W 075°07'4 9.4
2017-Sep-15 08:31N 38°51' W 075°06'3 6.0
2017-Sep-15 08:00N 38°48' W 075°07'1 2.1
2017-Sep-15 07:30N 38°47' W 075°07'0 0.0
2017-Sep-15 07:00N 38°47' W 075°07'0 0.0
2017-Sep-15 06:30N 38°47' W 075°07'0 0.0
2017-Sep-15 06:00N 38°47' W 075°07'0 0.0
2017-Sep-15 05:30N 38°47' W 075°07'4 8.1
2017-Sep-15 05:01N 38°51' W 075°05'4 6.1
2017-Sep-15 04:21N 38°47' W 075°07'0 0.0
2017-Sep-15 04:00N 38°47' W 075°07'0 0.0
2017-Sep-15 03:28N 38°47' W 075°07'4 0.3
2017-Sep-14 14:42N 38°51' W 075°04'314.9
2017-Sep-14 14:29N 38°48' W 075°07'1 2.5
2017-Sep-14 13:58N 38°47' W 075°07'0 0.0
2017-Sep-14 13:06N 38°47' W 075°07'0 0.0
2017-Sep-14 12:55N 38°47' W 075°07'0 0.0
2017-Sep-14 12:30N 38°47' W 075°07'0 0.0
2017-Sep-14 12:00N 38°47' W 075°07'0 0.0
2017-Sep-14 11:27N 38°47' W 075°07'0 0.0
2017-Sep-14 11:00N 38°47' W 075°07'0 0.0
2017-Sep-14 10:30N 38°47' W 075°07'0 0.0
2017-Sep-14 10:00N 38°47' W 075°07'0 0.0
2017-Sep-14 09:30N 38°47' W 075°07'0 0.0
2017-Sep-14 09:00N 38°47' W 075°07'0 0.0
2017-Sep-14 08:30N 38°47' W 075°07'0 0.0
2017-Sep-14 08:00N 38°47' W 075°07'0 0.0
2017-Sep-14 07:30N 38°47' W 075°07'0 0.0
2017-Sep-14 07:00N 38°47' W 075°07'0 0.0
2017-Sep-14 06:30N 38°47' W 075°07'0 0.0
2017-Sep-14 06:00N 38°47' W 075°07'0 0.0
2017-Sep-14 05:30N 38°47' W 075°07'0 0.0
2017-Sep-14 05:00N 38°47' W 075°07'3 6.1
2017-Sep-14 04:30N 38°50' W 075°07'3 6.1
2017-Sep-14 04:00N 38°47' W 075°07'0 0.0
2017-Sep-14 03:30N 38°47' W 075°07'0 0.0
2017-Sep-14 03:00N 38°47' W 075°07'0 0.0
2017-Sep-14 02:29N 38°47' W 075°07'0 0.0
2017-Sep-14 01:53N 38°47' W 075°07'0 0.0
2017-Sep-14 01:30N 38°47' W 075°07'0 0.0
2017-Sep-14 00:07N 38°47' W 075°07'0 0.0
2017-Sep-14 00:00N 38°47' W 075°07'0 0.0
2017-Sep-13 23:28N 38°47' W 075°07'0 0.0
2017-Sep-13 18:06N 38°47' W 075°07'0 0.0
2017-Sep-13 17:59N 38°47' W 075°07'0 0.0
2017-Sep-13 13:09N 38°47' W 075°07'0 0.0
2017-Sep-13 12:45N 38°47' W 075°07'0 0.0
2017-Sep-13 12:30N 38°47' W 075°07'0 0.0
2017-Sep-13 11:03N 38°47' W 075°07'0 0.0
2017-Sep-13 10:53N 38°47' W 075°07'0 0.0
2017-Sep-13 10:30N 38°47' W 075°07'0 0.0
2017-Sep-13 10:00N 38°47' W 075°07'2 4.8
2017-Sep-13 09:29N 38°48' W 075°04'2 5.1
2017-Sep-13 08:59N 38°47' W 075°07'3 6.1
2017-Sep-13 08:30N 38°48' W 075°04'3 5.9
2017-Sep-13 08:00N 38°47' W 075°07'611.7
2017-Sep-13 07:31N 38°53' W 075°05'2 4.2
2017-Sep-13 07:00N 38°50' W 075°06'2 4.2
2017-Sep-13 06:30N 38°48' W 075°05'2 4.5
2017-Sep-13 06:00N 38°47' W 075°07'0 0.0
2017-Sep-13 05:30N 38°47' W 075°07'0 0.0
2017-Sep-13 05:01N 38°47' W 075°07'0 0.0
2017-Sep-13 04:30N 38°47' W 075°07'0 0.0
2017-Sep-13 04:01N 38°47' W 075°07'0 0.0
2017-Sep-13 03:30N 38°47' W 075°07'0 0.0
2017-Sep-13 03:00N 38°47' W 075°07'0 0.0
2017-Sep-13 02:30N 38°47' W 075°07'2 4.4
2017-Sep-13 02:00N 38°49' W 075°05'2 4.4
2017-Sep-13 01:30N 38°47' W 075°07'0 0.0
2017-Sep-13 01:00N 38°47' W 075°07'0 0.0
2017-Sep-13 00:30N 38°47' W 075°07'0 0.0
2017-Sep-13 00:00N 38°47' W 075°07'0 0.0
2017-Sep-12 23:30N 38°47' W 075°07'0 0.0
2017-Sep-12 22:52N 38°47' W 075°07'0 0.0
2017-Sep-12 22:25N 38°47' W 075°07'0 0.0
2017-Sep-12 22:00N 38°47' W 075°07'0 0.0
2017-Sep-12 21:27N 38°47' W 075°07'0 0.0
2017-Sep-12 20:53N 38°47' W 075°07'0 0.0
2017-Sep-12 20:30N 38°47' W 075°07'0 0.0
2017-Sep-12 19:44N 38°47' W 075°07'0 0.0
2017-Sep-12 19:31N 38°47' W 075°07'0 0.0
2017-Sep-12 18:55N 38°47' W 075°07'0 0.0
2017-Sep-12 18:02N 38°47' W 075°07'0 0.0
2017-Sep-12 17:46N 38°47' W 075°07'0 0.0
2017-Sep-12 17:30N 38°47' W 075°07'0 0.0
2017-Sep-12 16:55N 38°47' W 075°07'0 0.0
2017-Sep-12 16:24N 38°47' W 075°07'0 0.0
2017-Sep-12 15:59N 38°47' W 075°07'0 0.0
2017-Sep-12 15:27N 38°47' W 075°07'0 0.0
2017-Sep-12 14:58N 38°47' W 075°07'0 0.0
2017-Sep-12 14:26N 38°47' W 075°07'0 0.0
2017-Sep-12 13:59N 38°47' W 075°07'0 0.0
2017-Sep-12 13:28N 38°47' W 075°07'0 0.0
2017-Sep-12 13:00N 38°47' W 075°07'0 0.0
2017-Sep-12 12:30N 38°47' W 075°07'2 0.6
2017-Sep-12 09:15N 38°49' W 075°06'2 9.2
2017-Sep-12 09:00N 38°49' W 075°03'4 7.3
2017-Sep-12 08:30N 38°47' W 075°07'0 0.0
2017-Sep-12 07:59N 38°47' W 075°07'0 0.0
2017-Sep-12 07:28N 38°47' W 075°07'0 0.0
2017-Sep-12 06:57N 38°47' W 075°07'0 0.0
2017-Sep-12 06:31N 38°47' W 075°07'0 0.0
2017-Sep-12 06:00N 38°47' W 075°07'0 0.0
2017-Sep-12 05:28N 38°47' W 075°07'0 0.0
2017-Sep-12 05:00N 38°47' W 075°07'4 8.6
2017-Sep-12 04:30N 38°51' W 075°05'4 8.4
2017-Sep-12 04:00N 38°47' W 075°07'0 0.0
2017-Sep-12 03:30N 38°47' W 075°07'0 0.0
2017-Sep-12 02:55N 38°47' W 075°07'0 0.0
2017-Sep-12 02:29N 38°47' W 075°07'2 4.1
2017-Sep-12 01:58N 38°49' W 075°05'  
Track history (hours):
 
Tides and Currents Weather Stations Pressure Air Temp Water Temp Dewpoint Dewpoint Depression Visibility Wind Speed Wind Dir Waves Ship Positions

Brandywine

Owner: OVERALLS LEASING LLC, LEWES, DE. More information available from US FCC via Universal Licensing System and Coast Guard Vessel Documentation Center.

Last reported at 2017-Sep-21 15:20 UTC. Time now 2017-Sep-21 15:59 UTC.
Position N 38°56' W 075°10'.

Length 16 m.

Type: . MMSI: 366980160.

Date/timePositionNaut miles runAvg speedWind from/ knotsBaromVisibWave heightAir tempDewpointWater temp
2017-Sep-21 15:20N 38°56' W 075°10'0 0.3
2017-Sep-21 15:00N 38°56' W 075°10'0 0.9
2017-Sep-21 14:29N 38°56' W 075°09'910.6
2017-Sep-21 13:38N 38°47' W 075°07'3 4.9
2017-Sep-21 13:05N 38°48' W 075°04'219.9
2017-Sep-21 13:00N 38°48' W 075°06'2 3.3
2017-Sep-21 12:30N 38°47' W 075°07'0 0.0
2017-Sep-21 12:00N 38°47' W 075°07'0 0.0
2017-Sep-21 11:30N 38°47' W 075°07'0 0.0
2017-Sep-21 11:00N 38°47' W 075°07'0 0.0
2017-Sep-21 10:30N 38°47' W 075°07'0 0.0
2017-Sep-21 10:00N 38°47' W 075°07'0 0.0
2017-Sep-21 09:30N 38°47' W 075°07'0 0.0
2017-Sep-21 09:00N 38°47' W 075°07'0 0.0
2017-Sep-21 08:30N 38°47' W 075°07'0 0.0
2017-Sep-21 07:57N 38°47' W 075°07'0 0.0
2017-Sep-21 07:12N 38°47' W 075°07'512.7
2017-Sep-21 06:50N 38°47' W 075°01'5 1.8
2017-Sep-21 04:11N 38°47' W 075°07'0 0.0
2017-Sep-21 03:54N 38°47' W 075°07'0 0.0
2017-Sep-21 03:30N 38°47' W 075°07'0 0.0
2017-Sep-21 02:50N 38°47' W 075°07'2 0.1
2017-Sep-19 10:09N 38°48' W 075°10'0 0.0
2017-Sep-19 06:10N 38°48' W 075°10'0 0.0
2017-Sep-19 05:58N 38°48' W 075°10'0 0.0
2017-Sep-19 03:40N 38°48' W 075°10'2 0.1
2017-Sep-18 11:24N 38°47' W 075°07'3 8.3
2017-Sep-18 11:01N 38°50' W 075°06'3 6.6
2017-Sep-18 10:30N 38°47' W 075°07'3 0.6
2017-Sep-18 05:29N 38°49' W 075°04'3 1.9
2017-Sep-18 03:49N 38°47' W 075°07'0 0.0
2017-Sep-18 02:41N 38°47' W 075°07'0 0.0
2017-Sep-18 02:24N 38°47' W 075°07'2 3.1
2017-Sep-18 01:46N 38°49' W 075°06'2 6.4
2017-Sep-18 01:28N 38°47' W 075°07'0 0.0
2017-Sep-18 00:56N 38°47' W 075°07'0 0.0
2017-Sep-18 00:03N 38°47' W 075°07'0 0.0
2017-Sep-17 14:17N 38°47' W 075°07'0 0.0
2017-Sep-17 13:57N 38°47' W 075°07'0 0.0
2017-Sep-17 13:08N 38°47' W 075°07'0 0.0
2017-Sep-17 13:00N 38°47' W 075°07'0 0.0
2017-Sep-17 12:25N 38°47' W 075°07'2 5.1
2017-Sep-17 11:58N 38°48' W 075°05'2 4.8
2017-Sep-17 11:30N 38°47' W 075°07'0 0.2
2017-Sep-17 10:58N 38°47' W 075°07'0 0.0
2017-Sep-17 10:28N 38°47' W 075°07'0 0.0
2017-Sep-17 10:00N 38°47' W 075°07'0 0.0
2017-Sep-17 09:29N 38°47' W 075°07'4 6.8
2017-Sep-17 08:54N 38°47' W 075°02'410.1
2017-Sep-17 08:30N 38°47' W 075°07'0 0.0
2017-Sep-17 07:54N 38°47' W 075°07'0 0.0
2017-Sep-17 07:30N 38°47' W 075°07'0 0.0
2017-Sep-17 06:54N 38°47' W 075°07'0 0.0
2017-Sep-17 06:28N 38°47' W 075°07'0 0.0
2017-Sep-17 06:00N 38°47' W 075°07'0 0.0
2017-Sep-17 05:30N 38°47' W 075°07'0 0.0
2017-Sep-17 05:00N 38°47' W 075°07'0 0.0
2017-Sep-17 04:30N 38°47' W 075°07'4 8.2
2017-Sep-17 04:00N 38°47' W 075°02'4 8.1
2017-Sep-17 03:30N 38°47' W 075°07'0 0.0
2017-Sep-17 02:57N 38°47' W 075°07'0 0.0
2017-Sep-17 02:30N 38°47' W 075°07'0 0.0
2017-Sep-17 02:00N 38°47' W 075°07'0 0.0
2017-Sep-17 01:30N 38°47' W 075°07'0 0.0
2017-Sep-17 01:00N 38°47' W 075°07'0 0.0
2017-Sep-17 00:30N 38°47' W 075°07'4 8.7
2017-Sep-17 00:01N 38°50' W 075°04'4 8.7
2017-Sep-16 23:31N 38°47' W 075°07'0 0.0
2017-Sep-16 23:00N 38°47' W 075°07'0 0.0
2017-Sep-16 22:30N 38°47' W 075°07'0 0.0
2017-Sep-16 21:59N 38°47' W 075°07'0 0.0
2017-Sep-16 21:30N 38°47' W 075°07'2 4.3
2017-Sep-16 20:59N 38°49' W 075°07'2 4.5
2017-Sep-16 20:30N 38°47' W 075°07'0 0.0
2017-Sep-16 20:00N 38°47' W 075°07'0 0.0
2017-Sep-16 19:31N 38°47' W 075°07'0 0.0
2017-Sep-16 18:47N 38°47' W 075°07'411.1
2017-Sep-16 18:24N 38°47' W 075°02'4 4.3
2017-Sep-16 17:26N 38°47' W 075°07'0 0.0
2017-Sep-16 16:59N 38°47' W 075°07'0 0.0
2017-Sep-16 16:00N 38°47' W 075°07'0 0.0
2017-Sep-16 15:30N 38°47' W 075°07'0 0.0
2017-Sep-16 14:58N 38°47' W 075°07'0 0.0
2017-Sep-16 14:26N 38°47' W 075°07'0 0.0
2017-Sep-16 14:00N 38°47' W 075°07'0 0.0
2017-Sep-16 13:30N 38°47' W 075°07'0 0.0
2017-Sep-16 13:00N 38°47' W 075°07'0 0.0
2017-Sep-16 12:30N 38°47' W 075°07'0 0.0
2017-Sep-16 12:00N 38°47' W 075°07'0 0.0
2017-Sep-16 11:30N 38°47' W 075°07'0 0.0
2017-Sep-16 11:00N 38°47' W 075°07'0 0.0
2017-Sep-16 10:30N 38°47' W 075°07'0 0.0
2017-Sep-16 10:00N 38°47' W 075°07'0 0.0
2017-Sep-16 09:30N 38°47' W 075°07'2 3.7
2017-Sep-16 09:00N 38°49' W 075°06'0 0.1
2017-Sep-16 08:30N 38°49' W 075°06'2 3.7
2017-Sep-16 08:00N 38°47' W 075°07'0 0.0
2017-Sep-16 07:30N 38°47' W 075°07'0 0.0
2017-Sep-16 07:00N 38°47' W 075°07'0 0.0
2017-Sep-16 06:30N 38°47' W 075°07'0 0.0
2017-Sep-16 06:00N 38°47' W 075°07'4 7.3
2017-Sep-16 05:31N 38°47' W 075°03'4 7.1
2017-Sep-16 05:00N 38°47' W 075°07'0 0.0
2017-Sep-16 04:30N 38°47' W 075°07'0 0.0
2017-Sep-16 04:00N 38°47' W 075°07'0 0.0
2017-Sep-16 03:16N 38°47' W 075°07'0 0.0
2017-Sep-16 02:59N 38°47' W 075°07'0 0.0
2017-Sep-16 00:42N 38°47' W 075°07'0 0.0
2017-Sep-16 00:29N 38°47' W 075°07'0 0.0
2017-Sep-15 23:59N 38°47' W 075°07'0 0.0
2017-Sep-15 16:04N 38°47' W 075°07'0 0.0
2017-Sep-15 15:54N 38°47' W 075°07'0 0.0
2017-Sep-15 15:29N 38°47' W 075°07'0 0.0
2017-Sep-15 15:00N 38°47' W 075°07'0 0.0
2017-Sep-15 14:30N 38°47' W 075°07'4 6.6
2017-Sep-15 13:53N 38°50' W 075°04'4 4.1
2017-Sep-15 12:54N 38°47' W 075°07'0 0.0
2017-Sep-15 12:30N 38°47' W 075°07'0 0.0
2017-Sep-15 12:00N 38°47' W 075°07'0 0.0
2017-Sep-15 11:14N 38°47' W 075°07'0 0.0
2017-Sep-15 11:00N 38°47' W 075°07'0 0.0
2017-Sep-15 10:30N 38°47' W 075°07'3 5.0
2017-Sep-15 10:00N 38°48' W 075°04'3 4.3
2017-Sep-15 09:25N 38°47' W 075°07'0 0.0
2017-Sep-15 08:56N 38°47' W 075°07'4 9.4
2017-Sep-15 08:31N 38°51' W 075°06'3 6.0
2017-Sep-15 08:00N 38°48' W 075°07'1 2.1
2017-Sep-15 07:30N 38°47' W 075°07'0 0.0
2017-Sep-15 07:00N 38°47' W 075°07'0 0.0
2017-Sep-15 06:30N 38°47' W 075°07'0 0.0
2017-Sep-15 06:00N 38°47' W 075°07'0 0.0
2017-Sep-15 05:30N 38°47' W 075°07'4 8.1
2017-Sep-15 05:01N 38°51' W 075°05'4 6.1
2017-Sep-15 04:21N 38°47' W 075°07'0 0.0
2017-Sep-15 04:00N 38°47' W 075°07'0 0.0
2017-Sep-15 03:28N 38°47' W 075°07'4 0.3
2017-Sep-14 14:42N 38°51' W 075°04'314.9
2017-Sep-14 14:29N 38°48' W 075°07'1 2.5
2017-Sep-14 13:58N 38°47' W 075°07'0 0.0
2017-Sep-14 13:06N 38°47' W 075°07'0 0.0
2017-Sep-14 12:55N 38°47' W 075°07'0 0.0
2017-Sep-14 12:30N 38°47' W 075°07'0 0.0
2017-Sep-14 12:00N 38°47' W 075°07'0 0.0
2017-Sep-14 11:27N 38°47' W 075°07'0 0.0
2017-Sep-14 11:00N 38°47' W 075°07'0 0.0
2017-Sep-14 10:30N 38°47' W 075°07'0 0.0
2017-Sep-14 10:00N 38°47' W 075°07'0 0.0
2017-Sep-14 09:30N 38°47' W 075°07'0 0.0
2017-Sep-14 09:00N 38°47' W 075°07'0 0.0
2017-Sep-14 08:30N 38°47' W 075°07'0 0.0
2017-Sep-14 08:00N 38°47' W 075°07'0 0.0
2017-Sep-14 07:30N 38°47' W 075°07'0 0.0
2017-Sep-14 07:00N 38°47' W 075°07'0 0.0
2017-Sep-14 06:30N 38°47' W 075°07'0 0.0
2017-Sep-14 06:00N 38°47' W 075°07'0 0.0
2017-Sep-14 05:30N 38°47' W 075°07'0 0.0
2017-Sep-14 05:00N 38°47' W 075°07'3 6.1
2017-Sep-14 04:30N 38°50' W 075°07'3 6.1
2017-Sep-14 04:00N 38°47' W 075°07'0 0.0
2017-Sep-14 03:30N 38°47' W 075°07'0 0.0
2017-Sep-14 03:00N 38°47' W 075°07'0 0.0
2017-Sep-14 02:29N 38°47' W 075°07'0 0.0
2017-Sep-14 01:53N 38°47' W 075°07'0 0.0
2017-Sep-14 01:30N 38°47' W 075°07'0 0.0
2017-Sep-14 00:07N 38°47' W 075°07'0 0.0
2017-Sep-14 00:00N 38°47' W 075°07'0 0.0
2017-Sep-13 23:28N 38°47' W 075°07'0 0.0
2017-Sep-13 18:06N 38°47' W 075°07'0 0.0
2017-Sep-13 17:59N 38°47' W 075°07'0 0.0
2017-Sep-13 13:09N 38°47' W 075°07'0 0.0
2017-Sep-13 12:45N 38°47' W 075°07'0 0.0
2017-Sep-13 12:30N 38°47' W 075°07'0 0.0
2017-Sep-13 11:03N 38°47' W 075°07'0 0.0
2017-Sep-13 10:53N 38°47' W 075°07'0 0.0
2017-Sep-13 10:30N 38°47' W 075°07'0 0.0
2017-Sep-13 10:00N 38°47' W 075°07'2 4.8
2017-Sep-13 09:29N 38°48' W 075°04'2 5.1
2017-Sep-13 08:59N 38°47' W 075°07'3 6.1
2017-Sep-13 08:30N 38°48' W 075°04'3 5.9
2017-Sep-13 08:00N 38°47' W 075°07'611.7
2017-Sep-13 07:31N 38°53' W 075°05'2 4.2
2017-Sep-13 07:00N 38°50' W 075°06'2 4.2
2017-Sep-13 06:30N 38°48' W 075°05'2 4.5
2017-Sep-13 06:00N 38°47' W 075°07'0 0.0
2017-Sep-13 05:30N 38°47' W 075°07'0 0.0
2017-Sep-13 05:01N 38°47' W 075°07'0 0.0
2017-Sep-13 04:30N 38°47' W 075°07'0 0.0
2017-Sep-13 04:01N 38°47' W 075°07'0 0.0
2017-Sep-13 03:30N 38°47' W 075°07'0 0.0
2017-Sep-13 03:00N 38°47' W 075°07'0 0.0
2017-Sep-13 02:30N 38°47' W 075°07'2 4.4
2017-Sep-13 02:00N 38°49' W 075°05'2 4.4
2017-Sep-13 01:30N 38°47' W 075°07'0 0.0
2017-Sep-13 01:00N 38°47' W 075°07'0 0.0
2017-Sep-13 00:30N 38°47' W 075°07'0 0.0
2017-Sep-13 00:00N 38°47' W 075°07'0 0.0
2017-Sep-12 23:30N 38°47' W 075°07'0 0.0
2017-Sep-12 22:52N 38°47' W 075°07'0 0.0
2017-Sep-12 22:25N 38°47' W 075°07'0 0.0
2017-Sep-12 22:00N 38°47' W 075°07'0 0.0
2017-Sep-12 21:27N 38°47' W 075°07'0 0.0
2017-Sep-12 20:53N 38°47' W 075°07'0 0.0
2017-Sep-12 20:30N 38°47' W 075°07'0 0.0
2017-Sep-12 19:44N 38°47' W 075°07'0 0.0
2017-Sep-12 19:31N 38°47' W 075°07'0 0.0
2017-Sep-12 18:55N 38°47' W 075°07'0 0.0
2017-Sep-12 18:02N 38°47' W 075°07'0 0.0
2017-Sep-12 17:46N 38°47' W 075°07'0 0.0
2017-Sep-12 17:30N 38°47' W 075°07'0 0.0
2017-Sep-12 16:55N 38°47' W 075°07'0 0.0
2017-Sep-12 16:24N 38°47' W 075°07'0 0.0
2017-Sep-12 15:59N 38°47' W 075°07'0 0.0
2017-Sep-12 15:27N 38°47' W 075°07'0 0.0
2017-Sep-12 14:58N 38°47' W 075°07'0 0.0
2017-Sep-12 14:26N 38°47' W 075°07'0 0.0
2017-Sep-12 13:59N 38°47' W 075°07'0 0.0
2017-Sep-12 13:28N 38°47' W 075°07'0 0.0
2017-Sep-12 13:00N 38°47' W 075°07'0 0.0
2017-Sep-12 12:30N 38°47' W 075°07'2 0.6
2017-Sep-12 09:15N 38°49' W 075°06'2 9.2
2017-Sep-12 09:00N 38°49' W 075°03'4 7.3
2017-Sep-12 08:30N 38°47' W 075°07'0 0.0
2017-Sep-12 07:59N 38°47' W 075°07'0 0.0
2017-Sep-12 07:28N 38°47' W 075°07'0 0.0
2017-Sep-12 06:57N 38°47' W 075°07'0 0.0
2017-Sep-12 06:31N 38°47' W 075°07'0 0.0
2017-Sep-12 06:00N 38°47' W 075°07'0 0.0
2017-Sep-12 05:28N 38°47' W 075°07'0 0.0
2017-Sep-12 05:00N 38°47' W 075°07'4 8.6
2017-Sep-12 04:30N 38°51' W 075°05'4 8.4
2017-Sep-12 04:00N 38°47' W 075°07'0 0.0
2017-Sep-12 03:30N 38°47' W 075°07'0 0.0
2017-Sep-12 02:55N 38°47' W 075°07'0 0.0
2017-Sep-12 02:29N 38°47' W 075°07'2 4.1
2017-Sep-12 01:58N 38°49' W 075°05'  

Dump ship's entire track history